Ada, OK

4:58 AM CDT on September 20, 2014 (GMT -0500)
Ada Municipal | Change Station
CLOSE
Current Station
Airport
Location: Ada,
Elevation: 1017 ft
Nearby Weather Stations
4.0 Earthquake: Medford, Oklahoma (1 day ago)  

Elev 1017 ft 34.80 °N, 96.67 °W | Updated 23 minutes ago

Clear
Clear
70 °F
Feels Like 70 °F
N
7
Wind Variable Wind from SSE

Today
High -- | Low -- °F
--% Chance of Precip.
Yesterday
High -- | Low -- °F
Precip. -- in
7:13 AM 7:26 PM
Waning Crescent, 13% visible
Pressure 30.00 in
Visibility 4.0 miles
Clouds Clear
Dew Point 70 °F
Humidity 100%
Rainfall 0.00 in
Snow Depth Not available.
UV 0 out of 12
Pollen 10.40 out of 12
Air Quality Not available.
Flu Activity Not available.
METAR KADH 200935Z AUTO 15006KT 4SM BR CLR 21/21 A3000 RMK AO2

More Conditions Fewer Conditions

Pressure 30.00 in
Visibility 4.0 miles
Clouds Clear
Dew Point 70 °F
Humidity 100%
Rainfall 0.00 in
Snow Depth Not available.
UV 0 out of 12
Pollen 10.40 out of 12
Air Quality Not available.
Flu Activity Not available.
METAR KADH 200935Z AUTO 15006KT 4SM BR CLR 21/21 A3000 RMK AO2

More Conditions Fewer Conditions

10-Day Weather Forecast

Almanac

Astronomy

Sep. 20, 2014 Rise Set
Actual Time 7:13 AM CDT 7:26 PM CDT
Civil Twilight 6:48 AM CDT 7:51 PM CDT
Nautical Twilight 6:18 AM CDT 8:20 PM CDT
Astronomical Twilight 5:48 AM CDT 8:50 PM CDT
Moon 4:00 AM CDT 5:25 PM CDT
Length of Visible Light 13h 03m
Length of Day
12h 13m
Tomorrow will be 2m 10s shorter.
Waning Crescent, 13% of the Moon is Illuminated
Today
Waning Crescent
Sep 24
New
Oct 1
First Quarter
Oct 8
Full
Oct 15
Last Quarter

Today's Extremes

State Highs State Lows

Community

WunderPhotos

Upload Photos

1,754,794 photos uploaded!

WunderBlogs® & News

Nearby

Snow Depth

Station Depth Elevation
No new snow has been reported.

Earthquake Activity

City Distance Mag. Time & Date
Luther, Oklahoma 66 miles 2.7 4:47 PM CDT
2014-09-19
Guthrie, Oklahoma 83 miles 3.9 12:23 PM CDT
2014-09-19
Jones, Oklahoma 64 miles 2.8 1:13 AM CDT
2014-09-19
Perry, Oklahoma 102 miles 3.3 12:08 AM CDT
2014-09-19
Minimum magnitude displayed is 2.5.

Coastal Water Temperatures

Place Temperature
No Stations Reporting

Nearby Weather Stations